Time;durP1;ratioP1;P1;durP2;ratioP2;P2;SDS_P1;SDS_P2;PMS_P1;PMS_P2;Temp;Humidity;BMP_temperature;BMP_pressure;BME280_temperature;BME280_humidity;BME280_pressure;Samples;Min_cycle;Max_cycle;Signal;HPM_P1;HPM_P2
2022/09/03 00:01:37;;;;;;;1.52;0.50;;;17.50;82.90;;;;;;5083257;28;20025;-89
2022/09/03 00:04:16;;;;;;;1.15;0.55;;;17.50;83.30;;;;;;5072989;28;20082;-86
2022/09/03 00:06:48;;;;;;;1.13;0.50;;;17.50;83.60;;;;;;5062241;28;20095;-87
2022/09/03 00:09:24;;;;;;;3.03;0.65;;;17.50;83.40;;;;;;5073858;28;20464;-88
2022/09/03 00:11:57;;;;;;;4.97;0.60;;;17.40;83.10;;;;;;5074162;28;20501;-86
2022/09/03 00:14:27;;;;;;;1.60;0.60;;;17.40;83.40;;;;;;5078538;28;20017;-88
2022/09/03 00:17:01;;;;;;;5.57;0.60;;;17.40;83.70;;;;;;5070113;28;20060;-85
2022/09/03 00:19:33;;;;;;;2.08;0.80;;;17.30;83.90;;;;;;5070639;28;20579;-88
2022/09/03 00:22:05;;;;;;;1.05;0.77;;;17.20;83.90;;;;;;5074747;28;20025;-85
2022/09/03 00:24:36;;;;;;;1.10;0.80;;;17.20;84.70;;;;;;5077477;28;20040;-86
2022/09/03 00:27:10;;;;;;;2.42;0.90;;;17.10;85.20;;;;;;5078491;28;20025;-88
2022/09/03 00:29:58;;;;;;;3.67;0.70;;;17.10;85.00;;;;;;5072516;28;20024;-85
2022/09/03 00:32:46;;;;;;;0.82;0.40;;;17.00;86.10;;;;;;5071275;28;20483;-86
2022/09/03 00:35:28;;;;;;;1.25;0.50;;;16.90;85.20;;;;;;5076096;28;20431;-85
2022/09/03 00:37:55;;;;;;;1.10;0.53;;;16.90;85.90;;;;;;5066796;28;20027;-86
2022/09/03 00:40:55;;;;;;;1.58;0.60;;;16.90;86.20;;;;;;5071181;28;20297;-86
2022/09/03 00:43:45;;;;;;;2.88;0.60;;;16.80;86.10;;;;;;5072147;28;20035;-87
2022/09/03 00:46:40;;;;;;;1.08;0.63;;;16.80;85.60;;;;;;5083646;28;20077;-85
2022/09/03 00:49:34;;;;;;;0.80;0.50;;;16.80;86.60;;;;;;5054294;28;20094;-87
2022/09/03 00:52:33;;;;;;;1.08;0.60;;;16.80;86.90;;;;;;5069186;28;20056;-86
2022/09/03 00:55:20;;;;;;;0.95;0.43;;;16.70;86.30;;;;;;5072834;28;20028;-86
2022/09/03 00:57:48;;;;;;;1.95;0.73;;;16.70;87.20;;;;;;5070028;28;20024;-86
2022/09/03 01:00:18;;;;;;;1.58;0.63;;;16.70;87.80;;;;;;5069642;28;20027;-86
2022/09/03 01:02:56;;;;;;;0.82;0.60;;;16.80;87.10;;;;;;5060449;28;20032;-89
2022/09/03 01:05:40;;;;;;;1.48;0.80;;;16.70;86.80;;;;;;5070169;28;20103;-86
2022/09/03 01:08:10;;;;;;;4.03;0.57;;;16.70;86.70;;;;;;5071711;28;20651;-86
2022/09/03 01:11:00;;;;;;;1.88;0.57;;;16.70;86.90;;;;;;5071526;28;20024;-85
2022/09/03 01:13:41;;;;;;;3.90;0.75;;;16.70;87.00;;;;;;5085545;28;20059;-86
2022/09/03 01:16:31;;;;;;;1.75;0.60;;;16.70;87.70;;;;;;5072750;28;20029;-86
2022/09/03 01:19:27;;;;;;;4.20;0.70;;;16.70;88.00;;;;;;5067636;28;20425;-86
2022/09/03 01:22:23;;;;;;;1.08;0.60;;;16.70;88.10;;;;;;5067448;28;20078;-89
2022/09/03 01:24:52;;;;;;;1.10;0.55;;;16.70;87.40;;;;;;5073627;28;20821;-86
2022/09/03 01:27:34;;;;;;;1.60;0.70;;;16.70;88.20;;;;;;5071470;28;20418;-88
2022/09/03 01:30:04;;;;;;;2.10;0.70;;;16.70;88.30;;;;;;5072341;28;20067;-85
2022/09/03 01:32:44;;;;;;;1.08;0.60;;;16.70;87.70;;;;;;5069239;28;20464;-86
2022/09/03 01:35:30;;;;;;;1.00;0.47;;;16.60;88.70;;;;;;5060356;28;20020;-85
2022/09/03 01:38:00;;;;;;;0.95;0.52;;;16.60;88.80;;;;;;5073336;28;20028;-85
2022/09/03 01:40:38;;;;;;;1.52;0.63;;;16.60;88.60;;;;;;5071554;28;20040;-86
2022/09/03 01:43:31;;;;;;;0.90;0.70;;;16.60;88.00;;;;;;5066481;28;20370;-85
2022/09/03 01:46:07;;;;;;;1.42;0.80;;;16.60;88.50;;;;;;5069063;28;20024;-85
2022/09/03 01:49:02;;;;;;;1.17;0.47;;;16.60;88.60;;;;;;5086532;28;20485;-88
2022/09/03 01:51:29;;;;;;;1.92;0.80;;;16.60;88.10;;;;;;5069216;28;20127;-86
2022/09/03 01:54:18;;;;;;;2.65;0.70;;;16.60;88.60;;;;;;5087352;28;20026;-88
2022/09/03 01:56:58;;;;;;;3.78;1.35;;;16.60;88.60;;;;;;5077337;28;20406;-86
2022/09/03 01:59:42;;;;;;;1.60;0.70;;;16.50;88.00;;;;;;5083288;28;20033;-86
2022/09/03 02:02:20;;;;;;;2.80;0.68;;;16.50;88.40;;;;;;5070234;28;20021;-85
2022/09/03 02:05:02;;;;;;;2.50;1.25;;;16.50;89.00;;;;;;5074871;28;20025;-85
2022/09/03 02:07:33;;;;;;;1.43;0.67;;;16.50;88.50;;;;;;5086791;28;20029;-87
2022/09/03 02:10:00;;;;;;;1.67;0.73;;;16.50;88.50;;;;;;5069296;28;20033;-85
2022/09/03 02:12:31;;;;;;;2.17;0.70;;;16.50;88.50;;;;;;5071610;28;20048;-88
2022/09/03 02:14:57;;;;;;;1.20;0.75;;;16.40;88.80;;;;;;5073159;28;20185;-85
2022/09/03 02:17:24;;;;;;;2.65;0.80;;;16.40;89.00;;;;;;5083352;28;20060;-87
2022/09/03 02:19:49;;;;;;;0.98;0.60;;;16.40;89.10;;;;;;5095998;28;20066;-85
2022/09/03 02:22:16;;;;;;;0.98;0.68;;;16.40;89.20;;;;;;5081208;28;20028;-86
2022/09/03 02:24:42;;;;;;;2.75;0.80;;;16.40;89.30;;;;;;5073850;28;20444;-86
2022/09/03 02:27:08;;;;;;;1.35;0.73;;;16.40;89.60;;;;;;5073799;28;20380;-86
2022/09/03 02:29:33;;;;;;;0.80;0.57;;;16.40;90.10;;;;;;5070802;28;20107;-86
2022/09/03 02:31:59;;;;;;;2.92;0.98;;;16.40;89.80;;;;;;5072713;28;20166;-86
2022/09/03 02:34:24;;;;;;;2.67;0.85;;;16.40;89.60;;;;;;5072153;28;20374;-86
2022/09/03 02:36:51;;;;;;;2.25;0.60;;;16.40;89.80;;;;;;5070140;28;20375;-88
2022/09/03 02:39:16;;;;;;;1.40;0.75;;;16.30;89.40;;;;;;5071245;28;20012;-86
2022/09/03 02:41:43;;;;;;;1.60;0.75;;;16.30;90.00;;;;;;5072202;28;20023;-86
2022/09/03 02:44:22;;;;;;;1.52;0.88;;;16.30;90.20;;;;;;5070374;28;20028;-86
2022/09/03 02:47:09;;;;;;;3.60;0.90;;;16.20;90.10;;;;;;5064832;28;20017;-86
2022/09/03 02:49:35;;;;;;;2.28;0.60;;;16.20;90.30;;;;;;5064296;28;20028;-87
2022/09/03 02:52:11;;;;;;;2.33;1.20;;;16.10;90.20;;;;;;5063595;28;20037;-86
2022/09/03 02:54:40;;;;;;;0.80;0.50;;;16.00;90.30;;;;;;5071518;28;20040;-87
2022/09/03 02:57:07;;;;;;;4.95;0.90;;;16.00;90.60;;;;;;5067898;28;20047;-85
2022/09/03 02:59:34;;;;;;;1.20;0.70;;;16.00;90.70;;;;;;5065603;28;20021;-87
2022/09/03 03:01:59;;;;;;;2.72;0.98;;;16.00;90.80;;;;;;5071305;28;20021;-88
2022/09/03 03:04:25;;;;;;;1.45;0.73;;;16.00;90.90;;;;;;5070637;28;20475;-89
2022/09/03 03:06:51;;;;;;;1.77;0.80;;;15.90;90.70;;;;;;5090493;28;20035;-88
2022/09/03 03:09:17;;;;;;;1.95;0.70;;;15.90;90.60;;;;;;5069921;28;20035;-87
2022/09/03 03:11:43;;;;;;;1.92;0.90;;;15.80;90.70;;;;;;5078606;28;20063;-86
2022/09/03 03:14:08;;;;;;;8.65;0.93;;;15.80;91.10;;;;;;5084083;28;20028;-86
2022/09/03 03:16:34;;;;;;;1.30;0.60;;;15.80;91.10;;;;;;5095898;28;20055;-85
2022/09/03 03:18:59;;;;;;;1.42;0.77;;;15.70;91.20;;;;;;5088411;28;20013;-86
2022/09/03 03:21:25;;;;;;;0.98;0.70;;;15.70;91.20;;;;;;5094446;28;20049;-88
2022/09/03 03:23:50;;;;;;;4.25;0.82;;;15.70;91.10;;;;;;5087405;28;20039;-88
2022/09/03 03:26:18;;;;;;;3.15;0.85;;;15.70;91.10;;;;;;5081681;28;20119;-85
2022/09/03 03:28:47;;;;;;;1.55;0.90;;;15.70;91.20;;;;;;5085373;28;20052;-88
2022/09/03 03:31:15;;;;;;;1.30;0.63;;;15.70;91.20;;;;;;5082157;28;20025;-86
2022/09/03 03:33:41;;;;;;;1.30;0.60;;;15.70;91.50;;;;;;5078874;28;20107;-86
2022/09/03 03:36:10;;;;;;;6.07;0.80;;;15.70;91.50;;;;;;5072458;28;20066;-86
2022/09/03 03:38:35;;;;;;;2.85;0.80;;;15.70;91.60;;;;;;5080899;28;20020;-85
2022/09/03 03:41:10;;;;;;;1.25;0.60;;;15.70;91.60;;;;;;5074961;28;20694;-84
2022/09/03 03:43:35;;;;;;;2.15;0.88;;;15.60;91.60;;;;;;5074003;28;20111;-85
2022/09/03 03:46:01;;;;;;;1.95;1.10;;;15.60;91.60;;;;;;5074668;28;20499;-86
2022/09/03 03:48:27;;;;;;;1.63;0.88;;;15.60;91.60;;;;;;5069643;28;20088;-85
2022/09/03 03:50:52;;;;;;;1.33;0.68;;;15.60;91.80;;;;;;5073938;28;20028;-86
2022/09/03 03:53:18;;;;;;;1.50;0.90;;;15.60;91.90;;;;;;5082596;28;20361;-86
2022/09/03 03:55:53;;;;;;;2.55;0.80;;;15.50;91.90;;;;;;5087886;28;20031;-86
2022/09/03 03:58:19;;;;;;;1.92;0.88;;;15.60;92.20;;;;;;5070542;28;20032;-87
2022/09/03 04:00:46;;;;;;;1.65;0.95;;;15.60;92.30;;;;;;5073157;28;20028;-86
2022/09/03 04:03:13;;;;;;;1.52;0.60;;;15.60;92.10;;;;;;5074101;28;20107;-86
2022/09/03 04:05:38;;;;;;;1.33;0.80;;;15.60;91.90;;;;;;5074124;28;20025;-86
2022/09/03 04:08:05;;;;;;;2.20;0.85;;;15.50;92.10;;;;;;5077059;28;20785;-85
2022/09/03 04:10:30;;;;;;;1.45;1.00;;;15.50;91.90;;;;;;5074289;28;20054;-88
2022/09/03 04:12:55;;;;;;;3.22;1.00;;;15.50;92.00;;;;;;5084942;28;20029;-87
2022/09/03 04:15:21;;;;;;;2.33;1.00;;;15.50;92.00;;;;;;5077941;28;20530;-85
2022/09/03 04:17:46;;;;;;;2.70;0.70;;;15.50;92.10;;;;;;5076010;28;20017;-85
2022/09/03 04:20:12;;;;;;;1.95;1.13;;;15.50;92.10;;;;;;5077096;28;20035;-86
2022/09/03 04:22:37;;;;;;;1.63;0.88;;;15.50;92.10;;;;;;5073625;28;20016;-85
2022/09/03 04:25:03;;;;;;;1.70;0.73;;;15.50;92.20;;;;;;5074452;28;20499;-85
2022/09/03 04:27:30;;;;;;;2.85;0.70;;;15.40;92.20;;;;;;5078254;28;20036;-85
2022/09/03 04:29:55;;;;;;;1.75;1.00;;;15.40;92.30;;;;;;5072352;28;20032;-86
2022/09/03 04:35:05;;;;;;;1.20;0.70;;;15.30;92.60;;;;;;5068638;28;20027;-85
2022/09/03 04:37:32;;;;;;;3.53;0.80;;;15.30;92.30;;;;;;5077423;28;20021;-85
2022/09/03 04:39:57;;;;;;;2.15;1.10;;;15.30;92.50;;;;;;5072598;28;20381;-85
2022/09/03 04:42:23;;;;;;;2.30;0.90;;;15.20;92.70;;;;;;5072081;28;20029;-85
2022/09/03 04:44:48;;;;;;;2.47;0.95;;;15.20;92.60;;;;;;5072306;28;20036;-88
2022/09/03 04:47:15;;;;;;;1.95;1.45;;;15.20;92.70;;;;;;5075682;28;20024;-87
2022/09/03 04:49:40;;;;;;;2.30;1.30;;;15.20;92.70;;;;;;5075786;28;20048;-88
2022/09/03 04:52:05;;;;;;;2.47;1.30;;;15.20;92.90;;;;;;5079544;28;20353;-87
2022/09/03 04:54:31;;;;;;;1.55;0.95;;;15.20;92.90;;;;;;5078927;28;20075;-87
2022/09/03 04:56:57;;;;;;;2.20;1.08;;;15.20;93.00;;;;;;5080012;28;20032;-87
2022/09/03 04:59:22;;;;;;;1.23;0.80;;;15.10;93.10;;;;;;5077797;28;20025;-85
2022/09/03 05:01:48;;;;;;;4.57;1.00;;;15.10;93.00;;;;;;5083495;28;20016;-83
2022/09/03 05:04:13;;;;;;;2.97;0.70;;;15.20;93.10;;;;;;5093636;28;20469;-84
2022/09/03 05:06:39;;;;;;;1.67;0.88;;;15.20;93.20;;;;;;5089495;28;20024;-86
2022/09/03 05:09:05;;;;;;;1.30;0.82;;;15.20;93.10;;;;;;5081357;28;20042;-86
2022/09/03 05:11:31;;;;;;;1.67;0.80;;;15.20;93.00;;;;;;5071556;28;20115;-86
2022/09/03 05:13:58;;;;;;;1.98;1.10;;;15.30;93.20;;;;;;5065531;28;20044;-86
2022/09/03 05:16:25;;;;;;;1.70;0.90;;;15.20;93.10;;;;;;5075009;28;20568;-86
2022/09/03 05:18:52;;;;;;;3.00;0.85;;;15.30;93.30;;;;;;5072311;28;20021;-89
2022/09/03 05:21:19;;;;;;;3.70;0.77;;;15.30;93.20;;;;;;5072283;28;20028;-87
2022/09/03 05:23:47;;;;;;;2.03;1.00;;;15.40;93.20;;;;;;5072073;28;20028;-86
2022/09/03 05:26:20;;;;;;;2.13;0.98;;;15.40;93.00;;;;;;5072072;28;20035;-86
2022/09/03 05:28:46;;;;;;;1.73;0.77;;;15.50;92.90;;;;;;5070114;28;20024;-85
2022/09/03 05:31:12;;;;;;;1.20;0.70;;;15.50;92.90;;;;;;5077017;28;20124;-86
2022/09/03 05:33:41;;;;;;;1.70;0.90;;;15.50;93.00;;;;;;5071194;28;20051;-87
2022/09/03 05:36:13;;;;;;;0.90;0.70;;;15.60;93.30;;;;;;5072950;28;20023;-86
2022/09/03 05:38:38;;;;;;;2.07;0.87;;;15.60;93.10;;;;;;5077458;28;20021;-87
2022/09/03 05:41:06;;;;;;;1.55;0.80;;;15.60;92.90;;;;;;5079308;28;20949;-87
2022/09/03 05:43:32;;;;;;;1.88;0.82;;;15.70;93.10;;;;;;5068857;28;20024;-89
2022/09/03 05:45:59;;;;;;;0.85;0.70;;;15.70;92.80;;;;;;5084522;28;20054;-86
2022/09/03 05:48:27;;;;;;;1.70;1.00;;;15.80;92.90;;;;;;5090924;28;20041;-86
2022/09/03 05:51:07;;;;;;;3.75;1.17;;;15.80;92.80;;;;;;5094691;28;20040;-85
2022/09/03 05:53:35;;;;;;;1.15;0.88;;;15.90;92.60;;;;;;5059832;28;20027;-87
2022/09/03 05:56:04;;;;;;;2.42;0.90;;;15.90;93.00;;;;;;5075577;28;20115;-87
2022/09/03 05:58:35;;;;;;;2.25;0.93;;;16.00;92.70;;;;;;5076062;28;20047;-85
2022/09/03 06:01:15;;;;;;;1.85;0.80;;;16.10;92.70;;;;;;5079501;28;20036;-85
2022/09/03 06:03:42;;;;;;;2.30;1.08;;;16.10;92.70;;;;;;5077302;28;20107;-87
2022/09/03 06:06:08;;;;;;;1.45;1.08;;;16.10;92.30;;;;;;5073280;28;20078;-86
2022/09/03 06:08:37;;;;;;;2.03;1.10;;;16.10;92.50;;;;;;5074338;28;20020;-87
2022/09/03 06:11:03;;;;;;;3.13;0.95;;;16.10;92.30;;;;;;5072633;28;20028;-86
2022/09/03 06:13:30;;;;;;;2.25;0.80;;;16.20;92.40;;;;;;5071691;28;20037;-86
2022/09/03 06:15:59;;;;;;;1.77;0.80;;;16.20;92.40;;;;;;5070148;28;20493;-86
2022/09/03 06:18:29;;;;;;;2.35;1.20;;;16.20;92.10;;;;;;5070621;28;20028;-86
2022/09/03 06:21:04;;;;;;;2.15;1.23;;;16.20;92.40;;;;;;5070101;28;20032;-86
2022/09/03 06:23:30;;;;;;;1.70;0.98;;;16.20;92.70;;;;;;5073162;28;20025;-87
2022/09/03 06:26:11;;;;;;;2.88;1.30;;;16.20;92.60;;;;;;5071381;28;20033;-85
2022/09/03 06:28:39;;;;;;;10.88;0.90;;;16.20;92.80;;;;;;5072807;28;20161;-87
2022/09/03 06:31:06;;;;;;;1.17;0.73;;;16.20;92.30;;;;;;5070924;28;20539;-86
2022/09/03 06:33:34;;;;;;;2.22;0.80;;;16.20;92.50;;;;;;5071102;28;20488;-88
2022/09/03 06:36:01;;;;;;;4.28;0.80;;;16.10;92.20;;;;;;5075846;28;20096;-89
2022/09/03 06:38:28;;;;;;;5.13;0.88;;;16.20;92.20;;;;;;5070918;28;20048;-86
2022/09/03 06:40:56;;;;;;;2.75;0.85;;;16.20;92.30;;;;;;5066946;28;20384;-86
2022/09/03 06:43:23;;;;;;;2.22;1.35;;;16.20;92.30;;;;;;5072942;28;20098;-91
2022/09/03 06:45:57;;;;;;;2.00;0.93;;;16.20;92.50;;;;;;5072140;28;20102;-86
2022/09/03 06:48:24;;;;;;;5.38;1.13;;;16.30;92.40;;;;;;5072994;28;20101;-86
2022/09/03 06:51:05;;;;;;;2.85;0.82;;;16.30;92.40;;;;;;5074357;28;20093;-87
2022/09/03 06:53:33;;;;;;;1.83;1.02;;;16.30;92.00;;;;;;5072648;28;20029;-86
2022/09/03 06:56:00;;;;;;;1.77;0.98;;;16.30;92.00;;;;;;5069717;28;20024;-87
2022/09/03 06:58:36;;;;;;;5.55;1.00;;;16.30;92.40;;;;;;5068973;28;20029;-88
2022/09/03 07:01:09;;;;;;;2.22;0.57;;;16.40;92.50;;;;;;5067865;28;20036;-86
2022/09/03 07:03:37;;;;;;;1.60;0.90;;;16.40;92.40;;;;;;5070030;28;20033;-85
2022/09/03 07:06:05;;;;;;;5.32;0.90;;;16.50;92.10;;;;;;5078615;28;20428;-86
2022/09/03 07:08:33;;;;;;;1.60;0.75;;;16.60;92.20;;;;;;5068671;28;20054;-86
2022/09/03 07:11:04;;;;;;;1.02;0.70;;;16.60;91.70;;;;;;5077372;28;20490;-86
2022/09/03 07:13:32;;;;;;;4.60;0.80;;;16.70;91.90;;;;;;5091341;28;20031;-87
2022/09/03 07:16:07;;;;;;;1.75;0.90;;;16.70;91.70;;;;;;5086410;28;20058;-86
2022/09/03 07:18:33;;;;;;;1.55;0.70;;;16.70;91.50;;;;;;5089616;28;20120;-88
2022/09/03 07:21:00;;;;;;;2.10;0.88;;;16.80;91.70;;;;;;5090565;28;20050;-84
2022/09/03 07:23:27;;;;;;;1.85;0.88;;;16.90;91.60;;;;;;5087368;28;20035;-85
2022/09/03 07:25:57;;;;;;;1.52;0.70;;;17.00;91.60;;;;;;5093143;28;20013;-86
2022/09/03 07:28:23;;;;;;;1.45;0.65;;;17.10;91.40;;;;;;5088185;28;20021;-86
2022/09/03 07:30:51;;;;;;;2.92;0.90;;;17.20;91.20;;;;;;5086787;28;20020;-88
2022/09/03 07:33:17;;;;;;;4.03;0.80;;;17.20;91.10;;;;;;5089743;28;20109;-85
2022/09/03 07:35:44;;;;;;;0.70;0.60;;;17.30;91.20;;;;;;5071561;28;20064;-87
2022/09/03 07:38:10;;;;;;;1.58;0.88;;;17.40;91.10;;;;;;5084260;28;20048;-87
2022/09/03 07:40:38;;;;;;;2.83;0.70;;;17.50;91.10;;;;;;5065340;28;20024;-86
2022/09/03 07:43:04;;;;;;;1.70;0.75;;;17.60;90.70;;;;;;5076390;28;20028;-85
2022/09/03 07:45:32;;;;;;;2.58;0.70;;;17.70;90.30;;;;;;5070162;28;20382;-87
2022/09/03 07:47:58;;;;;;;1.27;0.77;;;17.80;90.90;;;;;;5087444;28;20024;-86
2022/09/03 07:50:24;;;;;;;1.15;0.70;;;17.90;90.80;;;;;;5069211;28;20151;-87
2022/09/03 07:52:56;;;;;;;3.30;0.90;;;18.00;90.60;;;;;;5087014;28;20024;-86
2022/09/03 07:55:22;;;;;;;2.00;0.80;;;18.10;90.50;;;;;;5075558;28;20381;-87
2022/09/03 07:57:47;;;;;;;3.15;0.95;;;18.20;90.20;;;;;;5074238;28;20551;-87
2022/09/03 08:00:14;;;;;;;6.10;0.75;;;18.30;90.10;;;;;;5075895;28;20064;-87
2022/09/03 08:02:45;;;;;;;2.05;0.75;;;18.40;89.50;;;;;;5079144;28;20058;-86
2022/09/03 08:05:11;;;;;;;3.10;0.70;;;18.60;89.10;;;;;;5072785;28;20433;-87
2022/09/03 08:07:36;;;;;;;0.88;0.47;;;18.80;87.50;;;;;;5071318;28;20100;-88
2022/09/03 08:10:03;;;;;;;1.15;0.65;;;18.90;87.60;;;;;;5071695;28;20063;-89
2022/09/03 08:12:31;;;;;;;3.33;0.60;;;18.90;87.00;;;;;;5070333;28;20055;-86
2022/09/03 08:14:57;;;;;;;5.75;0.70;;;19.10;86.70;;;;;;5077087;28;20083;-87
2022/09/03 08:17:25;;;;;;;1.77;0.80;;;19.20;87.30;;;;;;5071639;28;20044;-89
2022/09/03 08:19:51;;;;;;;1.35;0.60;;;19.30;86.60;;;;;;5072915;28;20431;-88
2022/09/03 08:22:16;;;;;;;4.18;0.60;;;19.30;85.80;;;;;;5071241;28;20029;-88
2022/09/03 08:24:42;;;;;;;4.82;0.80;;;19.50;86.00;;;;;;5072770;28;20016;-89
2022/09/03 08:27:08;;;;;;;1.95;0.85;;;19.70;87.10;;;;;;5071578;28;20016;-88
2022/09/03 08:29:33;;;;;;;2.00;0.85;;;19.80;86.30;;;;;;5070302;28;20548;-89
2022/09/03 08:31:59;;;;;;;2.72;0.75;;;19.80;85.70;;;;;;5072705;28;20469;-86
2022/09/03 08:34:25;;;;;;;1.30;0.77;;;19.90;85.70;;;;;;5072395;28;20094;-89
2022/09/03 08:36:51;;;;;;;2.00;0.90;;;20.00;86.50;;;;;;5073828;28;20614;-86
2022/09/03 08:39:17;;;;;;;2.08;0.75;;;20.20;84.60;;;;;;5071737;28;20108;-86
2022/09/03 08:41:52;;;;;;;2.65;0.60;;;20.30;83.20;;;;;;5073052;28;20112;-86
2022/09/03 08:44:49;;;;;;;5.57;0.90;;;20.40;84.10;;;;;;5067253;28;20031;-91
2022/09/03 08:47:21;;;;;;;1.65;0.57;;;20.60;84.60;;;;;;5071123;28;20027;-92
2022/09/03 08:50:12;;;;;;;2.50;0.68;;;20.60;83.10;;;;;;5075205;28;20025;-90
2022/09/03 08:52:58;;;;;;;2.20;0.85;;;20.70;83.30;;;;;;5070060;28;20073;-88
2022/09/03 08:56:05;;;;;;;9.00;1.00;;;20.90;85.00;;;;;;5068584;28;20028;-87
2022/09/03 08:58:34;;;;;;;1.15;0.65;;;21.00;80.80;;;;;;5072346;28;20044;-87
2022/09/03 09:01:02;;;;;;;6.70;1.00;;;21.10;80.50;;;;;;5072131;28;20020;-86
2022/09/03 09:03:49;;;;;;;1.67;0.57;;;21.10;78.90;;;;;;5073774;28;20033;-86
2022/09/03 09:06:39;;;;;;;3.85;0.95;;;21.10;81.90;;;;;;5068140;28;20231;-86
2022/09/03 09:09:23;;;;;;;1.15;0.63;;;21.20;81.20;;;;;;5068172;28;20028;-87
2022/09/03 09:11:57;;;;;;;2.60;0.80;;;21.30;79.10;;;;;;5073069;28;20040;-87
2022/09/03 09:15:04;;;;;;;0.90;0.70;;;21.40;80.70;;;;;;5072308;28;20107;-88
2022/09/03 09:17:55;;;;;;;1.33;0.60;;;21.50;80.00;;;;;;5073047;28;20016;-88
2022/09/03 09:20:49;;;;;;;1.48;0.60;;;21.60;80.00;;;;;;5071382;28;20559;-87
2022/09/03 09:23:28;;;;;;;1.58;0.75;;;21.60;76.70;;;;;;5086553;28;20020;-86
2022/09/03 09:25:56;;;;;;;1.10;0.63;;;21.60;78.10;;;;;;5078858;28;20354;-87
2022/09/03 09:28:32;;;;;;;2.22;0.95;;;21.70;78.60;;;;;;5070704;28;20111;-89
2022/09/03 09:31:00;;;;;;;1.90;0.80;;;21.80;78.60;;;;;;5077461;28;20044;-88
2022/09/03 09:33:30;;;;;;;2.05;0.50;;;21.90;78.60;;;;;;5068869;28;20039;-86
2022/09/03 09:35:55;;;;;;;1.30;0.70;;;22.00;77.90;;;;;;5069866;28;20043;-87
2022/09/03 09:38:29;;;;;;;2.42;0.90;;;22.20;79.10;;;;;;5071098;28;20025;-88
2022/09/03 09:40:58;;;;;;;1.02;0.50;;;22.20;77.70;;;;;;5069292;28;20032;-89
2022/09/03 09:43:24;;;;;;;4.32;0.80;;;22.20;74.80;;;;;;5070093;28;20024;-88
2022/09/03 09:45:52;;;;;;;1.42;0.75;;;22.10;77.20;;;;;;5074493;28;20549;-91
2022/09/03 09:48:30;;;;;;;3.60;1.60;;;22.20;78.20;;;;;;5065204;28;20028;-88
2022/09/03 09:51:19;;;;;;;1.58;0.85;;;22.40;77.40;;;;;;5069418;28;20676;-88
2022/09/03 09:53:44;;;;;;;2.03;0.60;;;22.60;74.00;;;;;;5069155;28;20062;-89
2022/09/03 09:56:24;;;;;;;2.75;0.70;;;22.70;73.50;;;;;;5064071;28;20883;-88
2022/09/03 09:59:00;;;;;;;1.67;0.70;;;22.80;72.10;;;;;;5071178;28;20669;-89
2022/09/03 10:01:29;;;;;;;3.20;0.70;;;22.80;73.80;;;;;;5070327;28;20055;-88
2022/09/03 10:04:10;;;;;;;1.42;0.80;;;23.00;73.40;;;;;;5064931;28;20032;-91
2022/09/03 10:06:55;;;;;;;1.38;0.70;;;23.10;71.10;;;;;;5065777;28;20021;-88
2022/09/03 10:09:26;;;;;;;1.58;0.70;;;23.20;73.10;;;;;;5068938;28;20020;-88
2022/09/03 10:12:23;;;;;;;2.28;0.82;;;23.20;71.00;;;;;;5068016;28;20092;-88
2022/09/03 10:15:02;;;;;;;2.25;0.63;;;23.20;70.80;;;;;;5067064;28;20415;-88
2022/09/03 10:17:50;;;;;;;4.35;0.82;;;23.30;72.10;;;;;;5070084;28;20055;-89
2022/09/03 10:20:26;;;;;;;1.13;0.57;;;23.30;72.20;;;;;;5068972;28;20040;-84
2022/09/03 10:23:19;;;;;;;1.35;0.70;;;23.40;72.10;;;;;;5063058;28;20116;-87
2022/09/03 10:25:54;;;;;;;1.27;0.70;;;23.50;72.40;;;;;;5061201;28;20039;-83
2022/09/03 10:28:30;;;;;;;3.33;0.75;;;23.60;72.40;;;;;;5061204;28;20544;-81
2022/09/03 10:30:55;;;;;;;1.98;1.00;;;23.40;71.50;;;;;;5062237;28;20033;-82
2022/09/03 10:33:33;;;;;;;1.20;0.63;;;23.40;72.20;;;;;;5070286;28;20047;-82
2022/09/03 10:36:50;;;;;;;1.77;0.73;;;23.40;74.90;;;;;;5069150;28;20056;-80
2022/09/03 10:39:24;;;;;;;2.25;0.80;;;23.50;73.90;;;;;;5063512;28;20035;-86
2022/09/03 10:42:15;;;;;;;1.45;0.80;;;23.50;70.20;;;;;;5081578;28;20029;-86
2022/09/03 10:45:27;;;;;;;1.15;0.70;;;23.60;71.50;;;;;;5092455;28;20036;-87
2022/09/03 10:48:08;;;;;;;4.03;0.95;;;23.60;71.50;;;;;;5074707;28;20016;-87
2022/09/03 10:51:20;;;;;;;1.00;0.60;;;23.70;68.00;;;;;;5082331;28;20437;-88
2022/09/03 10:54:04;;;;;;;1.20;0.77;;;23.70;70.70;;;;;;5018742;28;20116;-87
2022/09/03 10:56:48;;;;;;;1.63;0.65;;;23.90;69.10;;;;;;5014559;28;20045;-87
2022/09/03 10:59:50;;;;;;;1.23;0.65;;;23.90;71.30;;;;;;5053573;28;20040;-81
2022/09/03 11:02:57;;;;;;;3.28;0.75;;;24.00;68.40;;;;;;5072261;28;20522;-80
2022/09/03 11:05:29;;;;;;;5.75;0.50;;;24.10;66.40;;;;;;5081758;28;20036;-81
2022/09/03 11:08:23;;;;;;;1.02;0.50;;;24.10;67.20;;;;;;5084372;28;20035;-81
2022/09/03 11:10:54;;;;;;;2.25;0.63;;;24.20;67.70;;;;;;5073776;28;20028;-82
2022/09/03 11:13:37;;;;;;;3.45;0.50;;;24.30;66.50;;;;;;5079924;28;20036;-82
2022/09/03 11:16:19;;;;;;;2.63;0.82;;;24.40;66.00;;;;;;5079158;28;20017;-82
2022/09/03 11:19:06;;;;;;;1.45;0.60;;;24.40;70.50;;;;;;5070479;28;20028;-82
2022/09/03 11:21:34;;;;;;;5.13;0.65;;;24.50;67.30;;;;;;5064817;28;20017;-81
2022/09/03 11:24:06;;;;;;;1.50;0.60;;;24.60;67.60;;;;;;5060098;28;20044;-81
2022/09/03 11:26:34;;;;;;;1.27;0.52;;;24.80;68.00;;;;;;5053909;28;20025;-84
2022/09/03 11:29:28;;;;;;;2.53;0.60;;;24.90;65.00;;;;;;5074956;28;20052;-85
2022/09/03 11:32:10;;;;;;;1.00;0.50;;;24.90;63.50;;;;;;5066154;28;20060;-84
2022/09/03 11:34:47;;;;;;;1.73;0.60;;;25.10;63.50;;;;;;5060902;28;20050;-85
2022/09/03 11:37:17;;;;;;;1.58;0.63;;;25.20;63.40;;;;;;5063638;28;20122;-84
2022/09/03 11:39:44;;;;;;;1.30;0.77;;;25.20;61.30;;;;;;5084686;28;20017;-85
2022/09/03 11:42:19;;;;;;;1.38;0.52;;;25.30;63.50;;;;;;5079081;28;20027;-85
2022/09/03 11:44:50;;;;;;;1.83;0.60;;;25.30;60.90;;;;;;5065202;28;20499;-83
2022/09/03 11:47:42;;;;;;;2.85;0.90;;;25.20;61.30;;;;;;5067719;28;20496;-84
2022/09/03 11:50:23;;;;;;;1.50;0.55;;;25.20;66.10;;;;;;5073549;28;20028;-83
2022/09/03 11:52:52;;;;;;;2.78;0.68;;;25.20;62.90;;;;;;5071778;28;20559;-85
2022/09/03 11:55:47;;;;;;;2.88;0.70;;;25.20;59.70;;;;;;5065887;28;20424;-85
2022/09/03 11:58:29;;;;;;;1.00;0.60;;;25.30;63.10;;;;;;5068610;28;20024;-84
2022/09/03 12:00:55;;;;;;;1.70;0.88;;;25.40;61.00;;;;;;5065262;28;20130;-84
2022/09/03 12:03:28;;;;;;;1.50;0.65;;;25.40;61.60;;;;;;5059304;28;20083;-85
2022/09/03 12:06:07;;;;;;;3.55;0.50;;;25.50;63.20;;;;;;5059773;28;20032;-84
2022/09/03 12:08:56;;;;;;;13.20;0.88;;;25.60;60.60;;;;;;5076549;28;20159;-86
2022/09/03 12:11:56;;;;;;;2.30;0.80;;;25.60;62.50;;;;;;5066571;28;20054;-84
2022/09/03 12:14:48;;;;;;;1.50;0.60;;;25.80;61.60;;;;;;5068615;28;20479;-84
2022/09/03 12:17:44;;;;;;;1.85;0.60;;;25.90;63.30;;;;;;5068594;28;20385;-85
2022/09/03 12:20:14;;;;;;;1.98;0.57;;;26.00;61.30;;;;;;5068625;28;20032;-85
2022/09/03 12:22:40;;;;;;;1.25;0.70;;;26.10;61.50;;;;;;5065132;28;20530;-84
2022/09/03 12:25:12;;;;;;;1.58;0.77;;;26.20;60.00;;;;;;5072206;28;20032;-84
2022/09/03 12:27:38;;;;;;;1.20;0.70;;;26.20;58.80;;;;;;5067472;28;20357;-85
2022/09/03 12:30:12;;;;;;;3.25;0.70;;;26.20;63.40;;;;;;5064832;28;20029;-84
2022/09/03 12:32:39;;;;;;;1.73;0.90;;;26.20;60.50;;;;;;5088846;28;20108;-86
2022/09/03 12:35:31;;;;;;;1.20;0.60;;;26.30;60.40;;;;;;5064069;28;20476;-85
2022/09/03 12:37:56;;;;;;;1.30;0.68;;;26.50;60.90;;;;;;5070693;28;20064;-85
2022/09/03 12:40:25;;;;;;;2.45;0.63;;;26.50;60.10;;;;;;5071166;28;20067;-85
2022/09/03 12:42:51;;;;;;;3.88;0.73;;;26.50;59.10;;;;;;5070761;28;20025;-85
2022/09/03 12:45:25;;;;;;;1.92;0.75;;;26.40;58.80;;;;;;5068212;28;20052;-85
2022/09/03 12:47:52;;;;;;;1.35;0.65;;;26.30;58.80;;;;;;5067034;28;20035;-83
2022/09/03 12:50:23;;;;;;;0.77;0.50;;;26.40;60.80;;;;;;5067715;28;20029;-86
2022/09/03 12:53:02;;;;;;;1.50;0.65;;;26.40;60.70;;;;;;5079133;28;20036;-85
2022/09/03 12:55:41;;;;;;;1.40;0.63;;;26.50;59.80;;;;;;5092142;28;20020;-84
2022/09/03 12:58:10;;;;;;;5.82;0.93;;;26.50;61.00;;;;;;5081903;28;20062;-84
2022/09/03 13:00:45;;;;;;;2.92;0.90;;;26.40;60.90;;;;;;5064932;28;20038;-85
2022/09/03 13:03:15;;;;;;;1.45;0.82;;;26.40;61.30;;;;;;5059260;28;20048;-80
2022/09/03 13:05:47;;;;;;;4.47;0.65;;;26.40;60.20;;;;;;5075792;28;20032;-79
2022/09/03 13:08:17;;;;;;;;;;;26.40;60.40;;;;;;5067985;28;20492;-82
2022/09/03 13:10:43;;;;;;;1.00;0.50;;;26.40;60.00;;;;;;5060913;28;19919;-80
2022/09/03 13:13:25;;;;;;;1.25;0.65;;;26.40;61.90;;;;;;5066719;28;20028;-79
2022/09/03 13:16:08;;;;;;;0.70;0.50;;;26.40;59.10;;;;;;5066405;28;20066;-78
2022/09/03 13:19:19;;;;;;;1.95;0.70;;;26.60;58.90;;;;;;5066239;28;20028;-85
2022/09/03 13:21:50;;;;;;;3.25;1.67;;;26.60;59.90;;;;;;5059831;28;20437;-80
2022/09/03 13:24:38;;;;;;;4.00;0.77;;;26.50;58.90;;;;;;5068762;28;20044;-80